^^
Peaceful Hills Weather Station Historical Data
 
Daily Summary for September 20, 2020 Units:  English    Metric   Both
Daily Weekly Monthly Yearly Custom
  Current: High: Low: Average:
Temperature: 79.1 °F 79.1 °F 58.9 °F 64.4 °F
Dew Point: 61.8 °F 63.6 °F 51.8 °F 56.1 °F
Humidity: 55.6% 83.6% 55.6% 75%
Wind Speed: 5mph 5mph 0mph 1mph
Wind Gust: 16mph 18mph - -
WindENE - - SE
Pressure: 30.19 in 30.23 in 30.15 in -
Precipitation: 0.00 in      
Historical Graphs
 
 
Tabular Data for September 20, 2020
Time Temperature Dew Point Pressure Wind Wind Speed Wind Gust Humidity Rainfall Rate (Hourly)
00:04 62.1 °F 52.8 °F 30.18 in North 1.4 mph 5 mph 71.6% 0.00 in
00:09 62 °F 52.8 °F 30.18 in South 1.6 mph 5 mph 71.8% 0.00 in
00:14 61.9 °F 52.4 °F 30.18 in ENE 1.8 mph 10 mph 71% 0.00 in
00:19 62 °F 52.5 °F 30.18 in Calm   12 mph 71% 0.00 in
00:24 62 °F 52.4 °F 30.18 in East 2 mph 5 mph 70.8% 0.00 in
00:29 62.1 °F 52.5 °F 30.18 in ESE 1.4 mph 14 mph 70.8% 0.00 in
00:34 62.2 °F 52.2 °F 30.18 in ENE 5 mph 16 mph 69.8% 0.00 in
00:39 62.3 °F 52 °F 30.18 in Calm   7 mph 69.2% 0.00 in
00:44 62.3 °F 52 °F 30.18 in ESE 1.2 mph 10 mph 69.2% 0.00 in
00:49 62.2 °F 52.2 °F 30.18 in SSE 1.2 mph 10 mph 69.8% 0.00 in
00:54 62 °F 52.2 °F 30.18 in SSE 0.8 mph 5 mph 70.2% 0.00 in
00:59 61.9 °F 52.2 °F 30.17 in Calm   10 mph 70.6% 0.00 in
01:04 61.8 °F 52.1 °F 30.17 in NNW 0.4 mph 10 mph 70.6% 0.00 in
01:09 61.6 °F 52.1 °F 30.17 in SE 1 mph 9 mph 71% 0.00 in
01:14 61.5 °F 52 °F 30.17 in NNE 0.8 mph 9 mph 71.2% 0.00 in
01:19 61.4 °F 52.1 °F 30.17 in East 1 mph 9 mph 71.6% 0.00 in
01:24 61.3 °F 52.2 °F 30.17 in SE 1.4 mph 14 mph 72% 0.00 in
01:29 61.2 °F 52.1 °F 30.17 in ESE 2.4 mph 12 mph 72% 0.00 in
01:34 61.1 °F 52 °F 30.17 in SE 2 mph 12 mph 72% 0.00 in
01:39 61 °F 51.9 °F 30.17 in East 0.4 mph 9 mph 72% 0.00 in
01:44 60.9 °F 51.9 °F 30.17 in ESE 3 mph 14 mph 72.2% 0.00 in
01:49 60.9 °F 51.8 °F 30.17 in Calm   9 mph 72% 0.00 in
01:54 60.8 °F 52.1 °F 30.17 in Calm     73% 0.00 in
01:59 60.6 °F 52.1 °F 30.17 in Calm     73.4% 0.00 in
02:04 60.4 °F 52 °F 30.17 in SE 0.8 mph 4 mph 73.8% 0.00 in
02:09 60.3 °F 52 °F 30.17 in ENE 1.4 mph 12 mph 74% 0.00 in
02:14 60.2 °F 51.9 °F 30.17 in ESE 2.8 mph 9 mph 74% 0.00 in
02:19 60.1 °F 52.1 °F 30.17 in South 0.8 mph 9 mph 75% 0.00 in
02:24 60 °F 52.1 °F 30.17 in NNE 0.4 mph 7 mph 75% 0.00 in
02:29 59.9 °F 52 °F 30.17 in North 1 mph 14 mph 75% 0.00 in
02:34 60 °F 52.1 °F 30.16 in East 2 mph 14 mph 75% 0.00 in
02:39 60 °F 52.1 °F 30.16 in ENE 2.6 mph 12 mph 75% 0.00 in
02:44 60 °F 52.1 °F 30.16 in Calm   12 mph 75.2% 0.00 in
02:49 59.8 °F 52 °F 30.16 in Calm   2 mph 75.2% 0.00 in
02:54 59.8 °F 52.2 °F 30.16 in Calm   4 mph 76% 0.00 in
02:59 59.7 °F 52.1 °F 30.16 in East 1.2 mph 5 mph 76% 0.00 in
03:04 59.6 °F 52.1 °F 30.16 in Calm   7 mph 76.2% 0.00 in
03:09 59.6 °F 52.2 °F 30.16 in Calm   7 mph 76.6% 0.00 in
03:14 59.6 °F 52.3 °F 30.16 in Calm     76.8% 0.00 in
03:19 59.6 °F 52.4 °F 30.16 in Calm   9 mph 77% 0.00 in
03:24 59.5 °F 52.3 °F 30.16 in Calm   2 mph 77% 0.00 in
03:29 59.4 °F 52.3 °F 30.16 in East 0.8 mph 5 mph 77.2% 0.00 in
03:34 59.4 °F 52.4 °F 30.16 in ENE 0.4 mph 12 mph 77.8% 0.00 in
03:39 59.4 °F 52.4 °F 30.16 in ENE 1.6 mph 12 mph 77.8% 0.00 in
03:44 59.3 °F 52.4 °F 30.16 in Calm   5 mph 78% 0.00 in
03:49 59.3 °F 52.6 °F 30.16 in Calm   2 mph 78.6% 0.00 in
03:54 59.2 °F 52.5 °F 30.16 in ENE 2.4 mph 9 mph 78.6% 0.00 in
03:59 59.2 °F 52.7 °F 30.16 in Calm   5 mph 79% 0.00 in
04:04 59.2 °F 52.7 °F 30.15 in NE 1 mph 12 mph 79% 0.00 in
04:09 59.3 °F 52.8 °F 30.16 in ESE 1.8 mph 5 mph 79% 0.00 in
04:14 59.3 °F 52.8 °F 30.15 in Calm   9 mph 79% 0.00 in
04:19 59.3 °F 52.8 °F 30.15 in SE 1.8 mph 7 mph 79% 0.00 in
04:24 59.3 °F 52.8 °F 30.16 in East 1.4 mph 12 mph 79% 0.00 in
04:29 59.2 °F 52.9 °F 30.16 in SE 0.8 mph 9 mph 79.8% 0.00 in
04:34 59.2 °F 53 °F 30.16 in Calm     80% 0.00 in
04:39 59.3 °F 53.1 °F 30.15 in ESE 1 mph 7 mph 80% 0.00 in
04:44 59.3 °F 53.1 °F 30.16 in SE 1.8 mph 12 mph 80% 0.00 in
04:49 59.3 °F 53.3 °F 30.16 in East 0.4 mph 12 mph 80.4% 0.00 in
04:54 59.2 °F 53.4 °F 30.16 in ESE 0.8 mph 7 mph 80.8% 0.00 in
04:59 59.2 °F 53.4 °F 30.16 in Calm     81% 0.00 in
05:04 59.2 °F 53.4 °F 30.16 in Calm     81% 0.00 in
05:09 59.1 °F 53.3 °F 30.16 in East 0.8 mph 7 mph 81% 0.00 in
05:14 59.1 °F 53.5 °F 30.16 in ESE 1.4 mph 7 mph 81.6% 0.00 in
05:19 59.1 °F 53.4 °F 30.16 in Calm   2 mph 81.6% 0.00 in
05:24 58.9 °F 53.4 °F 30.16 in East 0.4 mph 4 mph 82% 0.00 in
05:29 58.9 °F 53.6 °F 30.16 in Calm   2 mph 82.8% 0.00 in
05:34 59.1 °F 53.7 °F 30.17 in NE 1.2 mph 5 mph 82.4% 0.00 in
05:39 59.2 °F 53.7 °F 30.17 in ESE 1.2 mph 7 mph 82% 0.00 in
05:44 59.3 °F 53.8 °F 30.17 in East 1.6 mph 10 mph 82% 0.00 in
05:49 59.3 °F 53.8 °F 30.17 in Calm   7 mph 82% 0.00 in
05:54 59.3 °F 53.8 °F 30.17 in Calm     82% 0.00 in
05:59 59.2 °F 53.7 °F 30.17 in East 0.4 mph 2 mph 82% 0.00 in
06:04 59.1 °F 53.7 °F 30.17 in East 0.4 mph 4 mph 82.2% 0.00 in
06:09 59.1 °F 53.9 °F 30.18 in Calm   4 mph 83% 0.00 in
06:14 59.1 °F 53.9 °F 30.18 in Calm     83% 0.00 in
06:19 59.1 °F 53.9 °F 30.18 in SSE 0.4 mph 2 mph 83% 0.00 in
06:24 59.3 °F 54.1 °F 30.18 in Calm   4 mph 83% 0.00 in
06:29 59.4 °F 54.2 °F 30.18 in East 1.2 mph 5 mph 83% 0.00 in
06:34 59.5 °F 54.3 °F 30.18 in Calm   2 mph 83% 0.00 in
06:39 59.6 °F 54.4 °F 30.18 in Calm     83% 0.00 in
06:44 59.6 °F 54.4 °F 30.18 in Calm     83% 0.00 in
06:49 59.7 °F 54.5 °F 30.18 in East 0.4 mph 2 mph 83% 0.00 in
06:54 59.7 °F 54.5 °F 30.19 in Calm   2 mph 83% 0.00 in
06:59 59.7 °F 54.5 °F 30.19 in Calm     83% 0.00 in
07:04 59.7 °F 54.5 °F 30.19 in Calm     83% 0.00 in
07:09 59.6 °F 54.4 °F 30.19 in Calm     83% 0.00 in
07:14 59.7 °F 54.5 °F 30.19 in Calm     83% 0.00 in
07:19 59.7 °F 54.7 °F 30.19 in Calm     83.6% 0.00 in
07:24 59.7 °F 54.7 °F 30.19 in Calm     83.6% 0.00 in
07:29 59.8 °F 54.8 °F 30.20 in Calm   12 mph 83.6% 0.00 in
07:34 59.8 °F 54.6 °F 30.20 in Calm   7 mph 83% 0.00 in
07:39 59.8 °F 54.6 °F 30.20 in ESE 1 mph 7 mph 83% 0.00 in
07:44 59.9 °F 54.7 °F 30.20 in Calm   12 mph 83% 0.00 in
07:49 59.9 °F 54.7 °F 30.21 in Calm   5 mph 83% 0.00 in
07:54 60 °F 54.8 °F 30.21 in Calm   4 mph 83% 0.00 in
07:59 60 °F 55 °F 30.21 in Calm     83.4% 0.00 in
08:04 60.2 °F 55.2 °F 30.21 in Calm   2 mph 83.4% 0.00 in
08:09 60.6 °F 55.4 °F 30.21 in Calm     83% 0.00 in
08:14 61.1 °F 56 °F 30.21 in Calm   9 mph 83.4% 0.00 in
08:19 61.7 °F 56.2 °F 30.21 in Calm   9 mph 82.2% 0.00 in
08:24 62.2 °F 56.5 °F 30.21 in Calm   2 mph 81.6% 0.00 in
08:29 62.5 °F 56.7 °F 30.22 in East 0.4 mph 4 mph 81.2% 0.00 in
08:34 63 °F 56.9 °F 30.22 in Calm   4 mph 80.4% 0.00 in
08:39 63.4 °F 57.1 °F 30.22 in NNE 0.8 mph 5 mph 80.2% 0.00 in
08:44 63.7 °F 57.3 °F 30.22 in ENE 1.8 mph 12 mph 79.8% 0.00 in
08:49 63.8 °F 57.2 °F 30.22 in Calm   7 mph 79% 0.00 in
08:54 64 °F 57.4 °F 30.22 in North 0.8 mph 7 mph 79% 0.00 in
08:59 64.2 °F 57.5 °F 30.22 in East 0.4 mph 9 mph 79% 0.00 in
09:04 64.4 °F 57.7 °F 30.22 in SE 1 mph 5 mph 79% 0.00 in
09:09 64.7 °F 57.9 °F 30.23 in Calm     78.6% 0.00 in
09:14 64.9 °F 57.9 °F 30.23 in Calm     78% 0.00 in
09:19 65.3 °F 58.5 °F 30.23 in Calm     78.6% 0.00 in
09:24 65.6 °F 58.4 °F 30.23 in Calm     77.6% 0.00 in
09:29 65.8 °F 58.7 °F 30.23 in Calm     78% 0.00 in
09:34 65.9 °F 58.8 °F 30.23 in Calm     78% 0.00 in
09:39 66.1 °F 59 °F 30.23 in Calm     77.8% 0.00 in
09:49 67.1 °F 60.2 °F 30.23 in WNW 1.4 mph 7 mph 78.4% 0.00 in
09:54 67.7 °F 59.9 °F 30.23 in ENE 1.4 mph 9 mph 76.2% 0.00 in
09:59 67.9 °F 59.9 °F 30.23 in East 2.8 mph 12 mph 75.6% 0.00 in
10:04 68.1 °F 60.2 °F 30.23 in NNE 1.6 mph 16 mph 75.8% 0.00 in
10:09 68.3 °F 60.3 °F 30.23 in North 0.4 mph 16 mph 75.6% 0.00 in
10:14 68.5 °F 60.4 °F 30.23 in ESE 0.8 mph 16 mph 75.4% 0.00 in
10:19 69 °F 61 °F 30.23 in North 0.8 mph 7 mph 75.8% 0.00 in
10:24 69.4 °F 61.1 °F 30.23 in NW 1.6 mph 9 mph 75% 0.00 in
10:29 69.4 °F 60.9 °F 30.23 in ENE 1.6 mph 9 mph 74.2% 0.00 in
10:34 69.7 °F 61.2 °F 30.23 in East 1.4 mph 12 mph 74.4% 0.00 in
10:39 70.2 °F 61.2 °F 30.23 in ENE 2.4 mph 12 mph 73.2% 0.00 in
10:44 70.7 °F 61.6 °F 30.23 in SE 2 mph 12 mph 73.2% 0.00 in
10:49 71.2 °F 61.8 °F 30.23 in NNW 2.4 mph 9 mph 72.4% 0.00 in
10:54 71.4 °F 61.7 °F 30.23 in North 4 mph 9 mph 71.6% 0.00 in
10:59 71.5 °F 62.1 °F 30.22 in ENE 1.8 mph 10 mph 72.4% 0.00 in
11:04 71.8 °F 62.3 °F 30.22 in ESE 1.6 mph 9 mph 72.2% 0.00 in
11:09 71.9 °F 62.2 °F 30.22 in NNW 0.8 mph 5 mph 71.6% 0.00 in
11:14 72 °F 62.1 °F 30.22 in ENE 1.4 mph 7 mph 71% 0.00 in
11:19 72.5 °F 62.3 °F 30.22 in NE 2.2 mph 9 mph 70.2% 0.00 in
11:24 73 °F 62.5 °F 30.22 in ESE 1.4 mph 7 mph 69.8% 0.00 in
11:29 73.3 °F 62.5 °F 30.22 in NNE 2 mph 9 mph 69.2% 0.00 in
11:34 73.7 °F 63 °F 30.22 in ESE 2.8 mph 10 mph 69.2% 0.00 in
11:39 74.1 °F 62.8 °F 30.21 in Calm   10 mph 67.8% 0.00 in
11:44 74.7 °F 63.6 °F 30.21 in Calm   9 mph 68.4% 0.00 in
11:49 75 °F 63.2 °F 30.21 in NW 1.8 mph 7 mph 66.8% 0.00 in
11:54 75.1 °F 63.4 °F 30.21 in ESE 1.2 mph 12 mph 66.8% 0.00 in
11:59 75.2 °F 63.2 °F 30.21 in NW 1.2 mph 10 mph 66.4% 0.00 in
12:04 75.1 °F 63.1 °F 30.21 in NE 4.2 mph 14 mph 66.2% 0.00 in
12:09 75.3 °F 62.8 °F 30.21 in West 0.4 mph 14 mph 65.2% 0.00 in
12:14 75.5 °F 62.8 °F 30.21 in NNW 2.8 mph 9 mph 64.8% 0.00 in
12:19 75.8 °F 62.9 °F 30.21 in NNW 1.8 mph 10 mph 64.2% 0.00 in
12:24 76.1 °F 62.5 °F 30.21 in NNW 1.8 mph 10 mph 62.8% 0.00 in
12:29 76.3 °F 62.8 °F 30.21 in NNW 2.8 mph 10 mph 63.2% 0.00 in
12:34 76.3 °F 62.7 °F 30.21 in WNW 2.4 mph 9 mph 62.8% 0.00 in
12:39 76.5 °F 62.7 °F 30.20 in NE 1.6 mph 10 mph 62.4% 0.00 in
12:44 76.8 °F 62.5 °F 30.20 in SE 3.4 mph 10 mph 61.4% 0.00 in
12:49 77.1 °F 62.8 °F 30.20 in East 2.4 mph 10 mph 61.4% 0.00 in
12:54 77.7 °F 63.3 °F 30.20 in East 2.2 mph 9 mph 61.4% 0.00 in
12:59 78.1 °F 63.2 °F 30.20 in NNE 3.6 mph 14 mph 60.2% 0.00 in
13:04 78.3 °F 62.6 °F 30.20 in ENE 4.6 mph 18 mph 58.6% 0.00 in
13:09 78.4 °F 62.2 °F 30.20 in East 1.2 mph 9 mph 57.6% 0.00 in
13:14 78.7 °F 62.3 °F 30.20 in ESE 3.4 mph 12 mph 57.2% 0.00 in
13:19 78.9 °F 62.9 °F 30.20 in NNE 1 mph 10 mph 58.2% 0.00 in
13:24 78.9 °F 63 °F 30.19 in WNW 1.8 mph 18 mph 58.2% 0.00 in
13:29 79.1 °F 62.1 °F 30.19 in East 5 mph 16 mph 56% 0.00 in
13:34 79.1 °F 61.8 °F 30.19 in ENE 5 mph 16 mph 55.6% 0.00 in
Hot Springs, Arkansas, USA
Compliments of Weather Underground - 4 mb